Time;durP1;ratioP1;P1;durP2;ratioP2;P2;SDS_P1;SDS_P2;PMS_P1;PMS_P2;Temp;Humidity;BMP_temperature;BMP_pressure;BME280_temperature;BME280_humidity;BME280_pressure;Samples;Min_cycle;Max_cycle;Signal;HPM_P1;HPM_P2
2022/09/07 00:00:38;;;;;;;0.20;0.10;;;;;;;;;;5004043;28;20399;-81
2022/09/07 00:03:05;;;;;;;0.20;0.10;;;;;;;;;;5020277;28;20380;-85
2022/09/07 00:05:31;;;;;;;0.30;0.13;;;;;;;;;;5021849;28;20064;-80
2022/09/07 00:07:58;;;;;;;0.20;0.10;;;;;;;;;;5004813;28;20602;-86
2022/09/07 00:10:24;;;;;;;0.20;0.10;;;;;;;;;;5037617;28;20049;-83
2022/09/07 00:12:50;;;;;;;0.20;0.10;;;;;;;;;;5006068;28;20071;-81
2022/09/07 00:15:17;;;;;;;0.20;0.10;;;;;;;;;;4989052;28;20611;-82
2022/09/07 00:17:43;;;;;;;0.20;0.03;;;;;;;;;;5005589;28;20536;-83
2022/09/07 00:20:10;;;;;;;0.20;0.10;;;;;;;;;;5004041;28;20087;-84
2022/09/07 00:22:37;;;;;;;0.20;0.10;;;;;;;;;;5022471;28;20087;-84
2022/09/07 00:25:03;;;;;;;0.20;0.10;;;;;;;;;;4990802;28;20581;-80
2022/09/07 00:27:29;;;;;;;0.20;0.10;;;;;;;;;;5019169;28;20061;-83
2022/09/07 00:29:55;;;;;;;0.20;0.10;;;;;;;;;;5019651;28;20499;-80
2022/09/07 00:32:21;;;;;;;0.20;0.10;;;;;;;;;;5057636;22;20586;-83
2022/09/07 00:34:48;;;;;;;0.20;0.10;;;;;;;;;;5020374;28;20491;-84
2022/09/07 00:37:14;;;;;;;0.20;0.10;;;;;;;;;;5027912;28;20036;-84
2022/09/07 00:39:40;;;;;;;0.20;0.10;;;;;;;;;;5036153;28;20548;-85
2022/09/07 00:42:06;;;;;;;0.20;0.10;;;;;;;;;;5040476;28;20187;-86
2022/09/07 00:44:41;;;;;;;0.20;0.10;;;;;;;;;;5037455;28;20068;-86
2022/09/07 00:47:13;;;;;;;0.20;0.10;;;;;;;;;;5028319;28;20125;-86
2022/09/07 00:49:41;;;;;;;0.20;0.10;;;;;;;;;;5030833;28;20048;-86
2022/09/07 00:52:09;;;;;;;0.20;0.10;;;;;;;;;;5038992;28;20127;-87
2022/09/07 00:54:40;;;;;;;0.20;0.10;;;;;;;;;;5055548;28;20606;-87
2022/09/07 00:57:07;;;;;;;0.20;0.10;;;;;;;;;;5039722;28;20040;-86
2022/09/07 00:59:40;;;;;;;0.20;0.10;;;;;;;;;;5019754;28;20114;-86
2022/09/07 01:02:06;;;;;;;0.20;0.10;;;;;;;;;;5039381;28;20064;-87
2022/09/07 01:04:35;;;;;;;0.20;0.10;;;;;;;;;;5041622;28;20032;-87
2022/09/07 01:07:02;;;;;;;0.20;0.10;;;;;;;;;;5043298;28;20059;-86
2022/09/07 01:09:28;;;;;;;0.20;0.10;;;;;;;;;;5055888;28;20033;-86
2022/09/07 01:11:57;;;;;;;0.20;0.10;;;;;;;;;;5037806;28;20036;-86
2022/09/07 01:14:27;;;;;;;0.20;0.10;;;;;;;;;;5023683;28;20715;-82
2022/09/07 01:17:12;;;;;;;0.20;0.10;;;;;;;;;;5040858;28;20044;-82
2022/09/07 01:19:41;;;;;;;0.20;0.10;;;;;;;;;;5026523;28;20791;-83
2022/09/07 01:22:07;;;;;;;0.20;0.00;;;;;;;;;;5034273;28;20104;-83
2022/09/07 01:24:48;;;;;;;0.30;0.20;;;;;;;;;;5040071;28;20047;-84
2022/09/07 01:27:20;;;;;;;0.20;0.10;;;;;;;;;;5018493;28;20385;-83
2022/09/07 01:30:05;;;;;;;0.20;0.10;;;;;;;;;;5051939;28;20041;-85
2022/09/07 01:32:36;;;;;;;0.20;0.10;;;;;;;;;;5022893;28;20120;-83
2022/09/07 01:35:05;;;;;;;0.20;0.10;;;;;;;;;;5038675;28;20538;-82
2022/09/07 01:37:46;;;;;;;0.20;0.00;;;;;;;;;;5023046;28;20041;-83
2022/09/07 01:40:18;;;;;;;0.20;0.10;;;;;;;;;;5022000;28;20044;-83
2022/09/07 01:42:54;;;;;;;0.20;0.10;;;;;;;;;;5012950;28;20561;-83
2022/09/07 01:45:24;;;;;;;0.20;0.10;;;;;;;;;;5032530;28;20090;-84
2022/09/07 01:47:52;;;;;;;0.20;0.10;;;;;;;;;;5016136;28;20041;-84
2022/09/07 01:50:18;;;;;;;0.20;0.10;;;;;;;;;;5019664;28;20074;-86
2022/09/07 01:53:14;;;;;;;0.20;0.10;;;;;;;;;;5027275;28;20120;-86
2022/09/07 01:55:43;;;;;;;0.20;0.10;;;;;;;;;;5011215;28;20412;-86
2022/09/07 01:58:12;;;;;;;0.20;0.10;;;;;;;;;;5040528;28;20084;-83
2022/09/07 02:00:41;;;;;;;0.20;0.10;;;;;;;;;;5019060;28;20048;-86
2022/09/07 02:03:13;;;;;;;0.20;0.10;;;;;;;;;;5035625;28;20136;-82
2022/09/07 02:05:44;;;;;;;0.20;0.10;;;;;;;;;;5022140;28;20048;-84
2022/09/07 02:08:17;;;;;;;0.40;0.35;;;;;;;;;;5023832;28;20387;-83
2022/09/07 02:10:49;;;;;;;0.20;0.10;;;;;;;;;;5031079;28;20036;-84
2022/09/07 02:13:33;;;;;;;0.20;0.10;;;;;;;;;;5038506;28;20068;-83
2022/09/07 02:16:02;;;;;;;0.20;0.10;;;;;;;;;;5034989;28;20045;-85
2022/09/07 02:18:32;;;;;;;0.20;0.10;;;;;;;;;;5038297;28;20047;-85
2022/09/07 02:20:59;;;;;;;0.45;0.38;;;;;;;;;;5018535;28;20044;-86
2022/09/07 02:23:27;;;;;;;0.20;0.10;;;;;;;;;;5018876;28;20036;-85
2022/09/07 02:25:58;;;;;;;0.20;0.10;;;;;;;;;;5039545;28;20036;-84
2022/09/07 02:28:29;;;;;;;0.20;0.10;;;;;;;;;;5025260;28;20059;-83
2022/09/07 02:30:55;;;;;;;0.20;0.10;;;;;;;;;;5023441;28;20135;-84
2022/09/07 02:33:22;;;;;;;0.43;0.30;;;;;;;;;;5027042;28;20035;-83
2022/09/07 02:35:48;;;;;;;0.20;0.10;;;;;;;;;;5059594;28;20741;-83
2022/09/07 02:38:15;;;;;;;0.20;0.10;;;;;;;;;;5058718;28;22648;-82
2022/09/07 02:40:41;;;;;;;0.20;0.20;;;;;;;;;;5041078;28;20071;-82
2022/09/07 02:43:08;;;;;;;0.20;0.10;;;;;;;;;;5074135;28;20040;-82
2022/09/07 02:45:40;;;;;;;0.20;0.10;;;;;;;;;;5074368;28;20047;-82
2022/09/07 02:48:06;;;;;;;0.20;0.10;;;;;;;;;;5072781;28;20068;-82
2022/09/07 02:50:45;;;;;;;0.20;0.10;;;;;;;;;;5076494;28;20040;-82
2022/09/07 02:53:11;;;;;;;0.20;0.10;;;;;;;;;;5079953;28;20082;-83
2022/09/07 02:55:37;;;;;;;0.20;0.10;;;;;;;;;;5071052;28;20491;-83
2022/09/07 02:58:22;;;;;;;0.20;0.10;;;;;;;;;;5038389;28;20048;-82
2022/09/07 03:00:52;;;;;;;0.20;0.10;;;;;;;;;;5044460;28;20051;-82
2022/09/07 03:03:42;;;;;;;0.20;0.10;;;;;;;;;;5044203;28;20040;-82
2022/09/07 03:06:12;;;;;;;0.20;0.13;;;;;;;;;;5060336;28;20052;-82
2022/09/07 03:08:46;;;;;;;0.20;0.00;;;;;;;;;;5047725;28;20037;-84
2022/09/07 03:11:12;;;;;;;0.20;0.10;;;;;;;;;;5057835;28;20040;-82
2022/09/07 03:13:38;;;;;;;0.30;0.15;;;;;;;;;;5080542;28;20067;-82
2022/09/07 03:16:04;;;;;;;0.30;0.30;;;;;;;;;;5078637;28;20044;-83
2022/09/07 03:18:30;;;;;;;0.20;0.10;;;;;;;;;;5047953;28;20041;-83
2022/09/07 03:20:56;;;;;;;0.20;0.10;;;;;;;;;;5073827;28;20017;-84
2022/09/07 03:23:23;;;;;;;0.20;0.10;;;;;;;;;;5042047;28;20484;-86
2022/09/07 03:25:49;;;;;;;0.20;0.10;;;;;;;;;;5039287;28;20036;-86
2022/09/07 03:28:16;;;;;;;0.20;0.20;;;;;;;;;;5036372;28;20076;-85
2022/09/07 03:30:43;;;;;;;0.20;0.10;;;;;;;;;;5034497;28;20037;-85
2022/09/07 03:33:09;;;;;;;0.20;0.10;;;;;;;;;;5037521;28;20040;-86
2022/09/07 03:35:35;;;;;;;0.20;0.10;;;;;;;;;;5051977;28;20059;-84
2022/09/07 03:38:01;;;;;;;0.20;0.10;;;;;;;;;;5054713;28;20052;-86
2022/09/07 03:40:27;;;;;;;0.20;0.15;;;;;;;;;;5036740;28;20048;-84
2022/09/07 03:42:53;;;;;;;0.20;0.10;;;;;;;;;;5034139;28;20044;-88
2022/09/07 03:45:20;;;;;;;0.20;0.10;;;;;;;;;;5037559;28;20098;-86
2022/09/07 03:47:46;;;;;;;0.20;0.10;;;;;;;;;;5033009;28;20727;-87
2022/09/07 03:50:13;;;;;;;0.20;0.10;;;;;;;;;;5031466;28;20256;-87
2022/09/07 03:52:39;;;;;;;0.20;0.10;;;;;;;;;;5063973;28;20083;-84
2022/09/07 03:55:05;;;;;;;0.20;0.20;;;;;;;;;;5028797;28;20033;-88
2022/09/07 03:57:31;;;;;;;0.20;0.10;;;;;;;;;;5048467;28;20174;-88
2022/09/07 03:59:57;;;;;;;0.20;0.10;;;;;;;;;;5040574;28;20036;-87
2022/09/07 04:02:23;;;;;;;0.20;0.10;;;;;;;;;;5026511;28;20047;-86
2022/09/07 04:04:50;;;;;;;0.20;0.10;;;;;;;;;;5008970;28;20568;-86
2022/09/07 04:07:16;;;;;;;0.20;0.10;;;;;;;;;;5010225;28;20557;-87
2022/09/07 04:09:42;;;;;;;0.20;0.10;;;;;;;;;;5006665;28;20476;-87
2022/09/07 04:12:08;;;;;;;0.20;0.10;;;;;;;;;;5021125;28;20568;-87
2022/09/07 04:14:34;;;;;;;0.22;0.22;;;;;;;;;;5022539;28;20037;-86
2022/09/07 04:17:00;;;;;;;0.20;0.10;;;;;;;;;;5022431;28;20040;-85
2022/09/07 04:19:26;;;;;;;0.20;0.10;;;;;;;;;;5015862;28;20047;-87
2022/09/07 04:21:52;;;;;;;0.20;0.10;;;;;;;;;;5018966;28;20391;-84
2022/09/07 04:24:18;;;;;;;0.20;0.10;;;;;;;;;;5023440;28;20048;-86
2022/09/07 04:26:44;;;;;;;0.20;0.10;;;;;;;;;;5028817;28;20136;-87
2022/09/07 04:29:11;;;;;;;0.20;0.10;;;;;;;;;;5022735;28;20076;-84
2022/09/07 04:31:38;;;;;;;0.20;0.10;;;;;;;;;;5024756;28;20047;-86
2022/09/07 04:34:04;;;;;;;0.20;0.10;;;;;;;;;;5039086;28;20059;-84
2022/09/07 04:36:31;;;;;;;0.20;0.10;;;;;;;;;;5042600;28;20690;-85
2022/09/07 04:39:00;;;;;;;0.20;0.10;;;;;;;;;;5028071;28;20090;-84
2022/09/07 04:41:27;;;;;;;0.20;0.10;;;;;;;;;;5026465;28;20045;-83
2022/09/07 04:43:54;;;;;;;0.20;0.10;;;;;;;;;;5052986;28;20071;-86
2022/09/07 04:46:25;;;;;;;0.20;0.10;;;;;;;;;;5041870;28;20041;-86
2022/09/07 04:48:52;;;;;;;0.20;0.10;;;;;;;;;;5042972;28;20033;-86
2022/09/07 04:51:19;;;;;;;0.20;0.10;;;;;;;;;;5044481;28;20078;-86
2022/09/07 04:53:47;;;;;;;0.20;0.10;;;;;;;;;;5024588;28;20051;-85
2022/09/07 04:56:13;;;;;;;0.20;0.10;;;;;;;;;;5025748;28;20044;-85
2022/09/07 04:58:39;;;;;;;0.20;0.10;;;;;;;;;;5008665;28;20044;-86
2022/09/07 05:01:06;;;;;;;0.20;0.10;;;;;;;;;;5038606;28;20341;-86
2022/09/07 05:03:33;;;;;;;0.20;0.10;;;;;;;;;;5026411;28;20036;-86
2022/09/07 05:06:03;;;;;;;0.20;0.10;;;;;;;;;;5028653;28;20062;-87
2022/09/07 05:08:30;;;;;;;0.20;0.10;;;;;;;;;;5026981;28;20074;-86
2022/09/07 05:10:56;;;;;;;0.20;0.10;;;;;;;;;;5044665;28;20094;-86
2022/09/07 05:13:23;;;;;;;0.20;0.10;;;;;;;;;;5024112;28;20774;-86
2022/09/07 05:15:49;;;;;;;0.20;0.10;;;;;;;;;;5025343;28;20127;-84
2022/09/07 05:18:15;;;;;;;0.20;0.20;;;;;;;;;;5020411;28;20093;-86
2022/09/07 05:20:41;;;;;;;0.40;0.20;;;;;;;;;;5019490;28;20402;-87
2022/09/07 05:23:08;;;;;;;0.20;0.10;;;;;;;;;;5016600;28;21518;-86
2022/09/07 05:25:34;;;;;;;0.20;0.10;;;;;;;;;;5027869;28;20041;-86
2022/09/07 05:28:00;;;;;;;0.20;0.13;;;;;;;;;;5031967;28;20124;-86
2022/09/07 05:30:26;;;;;;;0.20;0.10;;;;;;;;;;5031086;28;20066;-86
2022/09/07 05:32:52;;;;;;;0.20;0.10;;;;;;;;;;5006252;28;20078;-86
2022/09/07 05:35:19;;;;;;;0.20;0.10;;;;;;;;;;5002693;28;20102;-86
2022/09/07 05:37:51;;;;;;;0.20;0.10;;;;;;;;;;5032952;28;20162;-86
2022/09/07 05:40:17;;;;;;;0.20;0.10;;;;;;;;;;5017084;28;20048;-87
2022/09/07 05:42:43;;;;;;;0.20;0.10;;;;;;;;;;5033659;28;20037;-86
2022/09/07 05:45:09;;;;;;;0.20;0.10;;;;;;;;;;5034100;28;20170;-84
2022/09/07 05:47:36;;;;;;;0.60;0.25;;;;;;;;;;5019065;28;20068;-84
2022/09/07 05:50:04;;;;;;;0.20;0.10;;;;;;;;;;5018194;28;20159;-86
2022/09/07 05:52:30;;;;;;;0.20;0.10;;;;;;;;;;5003036;28;20403;-86
2022/09/07 05:54:56;;;;;;;0.20;0.13;;;;;;;;;;5020224;28;21422;-86
2022/09/07 05:57:22;;;;;;;0.20;0.10;;;;;;;;;;5020797;28;20052;-87
2022/09/07 05:59:48;;;;;;;0.20;0.10;;;;;;;;;;5015806;28;20402;-84
2022/09/07 06:02:14;;;;;;;0.20;0.10;;;;;;;;;;5035050;28;20067;-84
2022/09/07 06:04:41;;;;;;;0.20;0.10;;;;;;;;;;5018621;28;20453;-84
2022/09/07 06:07:07;;;;;;;0.20;0.10;;;;;;;;;;5001981;28;20685;-84
2022/09/07 06:09:33;;;;;;;0.30;0.20;;;;;;;;;;5024859;28;20029;-85
2022/09/07 06:12:03;;;;;;;0.20;0.10;;;;;;;;;;5034460;28;20037;-86
2022/09/07 06:14:29;;;;;;;0.20;0.10;;;;;;;;;;5039897;28;20048;-86
2022/09/07 06:16:55;;;;;;;0.20;0.10;;;;;;;;;;5028300;28;20045;-86
2022/09/07 06:19:21;;;;;;;0.88;0.88;;;;;;;;;;5028227;28;20087;-86
2022/09/07 06:21:47;;;;;;;0.20;0.10;;;;;;;;;;5011235;28;20073;-86
2022/09/07 06:24:13;;;;;;;0.20;0.10;;;;;;;;;;5043446;28;20102;-87
2022/09/07 06:26:39;;;;;;;0.20;0.10;;;;;;;;;;5037358;28;20037;-86
2022/09/07 06:29:05;;;;;;;0.20;0.10;;;;;;;;;;5034308;28;20068;-86
2022/09/07 06:31:32;;;;;;;0.20;0.10;;;;;;;;;;5026815;22;20137;-89
2022/09/07 06:33:58;;;;;;;0.20;0.10;;;;;;;;;;4983129;28;20396;-86
2022/09/07 06:36:26;;;;;;;0.20;0.10;;;;;;;;;;4969564;28;20049;-86
2022/09/07 06:38:54;;;;;;;0.20;0.10;;;;;;;;;;5003144;28;20037;-87
2022/09/07 06:41:21;;;;;;;0.20;0.10;;;;;;;;;;4985463;28;20455;-87
2022/09/07 06:43:47;;;;;;;0.20;0.10;;;;;;;;;;4999368;28;20072;-87
2022/09/07 06:46:14;;;;;;;0.20;0.10;;;;;;;;;;4981946;28;20590;-87
2022/09/07 06:48:40;;;;;;;0.20;0.10;;;;;;;;;;4999136;28;20041;-86
2022/09/07 06:51:07;;;;;;;0.20;0.20;;;;;;;;;;4970557;28;20060;-88
2022/09/07 06:53:34;;;;;;;0.20;0.10;;;;;;;;;;4983986;28;20052;-87
2022/09/07 06:56:00;;;;;;;0.20;0.10;;;;;;;;;;4970455;28;20124;-85
2022/09/07 06:58:27;;;;;;;0.20;0.10;;;;;;;;;;4982131;28;21614;-86
2022/09/07 07:00:54;;;;;;;0.20;0.10;;;;;;;;;;4980421;28;20144;-86
2022/09/07 07:03:20;;;;;;;0.20;0.10;;;;;;;;;;5000711;28;22027;-84
2022/09/07 07:05:51;;;;;;;0.20;0.10;;;;;;;;;;4993518;28;20049;-84
2022/09/07 07:08:17;;;;;;;0.20;0.10;;;;;;;;;;4996883;28;20037;-83
2022/09/07 07:10:43;;;;;;;0.20;0.10;;;;;;;;;;4973091;28;20400;-84
2022/09/07 07:13:09;;;;;;;0.20;0.10;;;;;;;;;;4972219;28;20044;-84
2022/09/07 07:15:35;;;;;;;0.20;0.10;;;;;;;;;;4961043;28;20138;-85
2022/09/07 07:18:01;;;;;;;0.20;0.10;;;;;;;;;;5001414;28;20046;-86
2022/09/07 07:20:28;;;;;;;0.20;0.13;;;;;;;;;;4999169;28;20148;-85
2022/09/07 07:22:54;;;;;;;0.20;0.10;;;;;;;;;;5004531;28;20049;-85
2022/09/07 07:25:20;;;;;;;0.20;0.10;;;;;;;;;;4999151;28;20057;-85
2022/09/07 07:27:46;;;;;;;0.20;0.10;;;;;;;;;;4984111;28;20041;-85
2022/09/07 07:30:13;;;;;;;0.20;0.10;;;;;;;;;;4992494;28;20033;-87
2022/09/07 07:32:39;;;;;;;0.30;0.28;;;;;;;;;;4999133;28;20043;-87
2022/09/07 07:35:17;;;;;;;0.20;0.10;;;;;;;;;;4969956;28;20037;-85
2022/09/07 07:37:44;;;;;;;0.20;0.10;;;;;;;;;;4973217;28;20118;-88
2022/09/07 07:40:11;;;;;;;0.20;0.10;;;;;;;;;;4974002;28;20040;-88
2022/09/07 07:42:38;;;;;;;0.65;0.20;;;;;;;;;;5004072;28;20060;-88
2022/09/07 07:45:05;;;;;;;0.20;0.10;;;;;;;;;;5006427;28;20058;-87
2022/09/07 07:47:31;;;;;;;0.22;0.13;;;;;;;;;;4978936;28;20045;-86
2022/09/07 07:49:58;;;;;;;0.20;0.10;;;;;;;;;;5006261;28;20072;-89
2022/09/07 07:52:24;;;;;;;0.20;0.10;;;;;;;;;;5009531;28;20033;-89
2022/09/07 07:54:50;;;;;;;0.20;0.10;;;;;;;;;;5010818;28;20029;-86
2022/09/07 07:57:17;;;;;;;0.20;0.10;;;;;;;;;;4993479;28;20056;-87
2022/09/07 07:59:43;;;;;;;0.20;0.10;;;;;;;;;;4972845;28;20120;-89
2022/09/07 08:02:13;;;;;;;0.20;0.10;;;;;;;;;;4993051;28;20091;-88
2022/09/07 08:04:40;;;;;;;0.20;0.10;;;;;;;;;;4993890;28;20118;-86
2022/09/07 08:07:06;;;;;;;0.20;0.10;;;;;;;;;;4989138;28;20046;-85
2022/09/07 08:09:32;;;;;;;0.20;0.10;;;;;;;;;;4973134;28;20503;-87
2022/09/07 08:12:04;;;;;;;0.20;0.10;;;;;;;;;;4992586;28;20125;-89
2022/09/07 08:14:30;;;;;;;0.20;0.10;;;;;;;;;;4987470;28;20057;-86
2022/09/07 08:16:56;;;;;;;0.20;0.10;;;;;;;;;;4989537;28;20503;-87
2022/09/07 08:19:22;;;;;;;0.20;0.10;;;;;;;;;;4975608;28;20120;-89
2022/09/07 08:21:51;;;;;;;0.20;0.10;;;;;;;;;;4991853;28;20474;-88
2022/09/07 08:24:18;;;;;;;0.20;0.10;;;;;;;;;;4976163;28;20045;-86
2022/09/07 08:26:44;;;;;;;0.20;0.10;;;;;;;;;;4988969;28;20041;-89
2022/09/07 08:29:13;;;;;;;0.20;0.10;;;;;;;;;;4976114;28;20098;-88
2022/09/07 08:31:43;;;;;;;0.20;0.10;;;;;;;;;;4991222;28;20043;-86
2022/09/07 08:34:09;;;;;;;0.20;0.10;;;;;;;;;;4972874;28;20064;-88
2022/09/07 08:36:35;;;;;;;0.20;0.10;;;;;;;;;;4990079;28;20049;-86
2022/09/07 08:39:03;;;;;;;0.20;0.10;;;;;;;;;;5005411;28;20045;-90
2022/09/07 08:41:42;;;;;;;0.20;0.10;;;;;;;;;;4987117;28;20589;-85
2022/09/07 08:44:20;;;;;;;0.20;0.10;;;;;;;;;;4994273;28;20045;-86
2022/09/07 08:46:48;;;;;;;0.20;0.10;;;;;;;;;;4992245;28;20123;-87
2022/09/07 08:49:21;;;;;;;0.30;0.20;;;;;;;;;;4979597;28;20080;-86
2022/09/07 08:51:47;;;;;;;;;;;;;;;;;;5015090;28;20952;-86
2022/09/07 08:54:15;;;;;;;0.20;0.13;;;;;;;;;;4986255;28;19985;-84
2022/09/07 08:56:44;;;;;;;0.20;0.10;;;;;;;;;;5004547;28;20477;-86
2022/09/07 08:59:18;;;;;;;0.20;0.10;;;;;;;;;;5002514;28;20068;-89
2022/09/07 09:01:44;;;;;;;0.20;0.10;;;;;;;;;;5002251;28;20140;-88
2022/09/07 09:04:25;;;;;;;0.20;0.10;;;;;;;;;;5021077;28;20457;-87
2022/09/07 09:07:02;;;;;;;0.20;0.20;;;;;;;;;;5000109;28;20056;-88
2022/09/07 09:09:33;;;;;;;0.20;0.10;;;;;;;;;;4985469;28;20554;-87
2022/09/07 09:12:17;;;;;;;0.52;0.52;;;;;;;;;;4977620;28;21202;-88
2022/09/07 09:14:47;;;;;;;0.20;0.10;;;;;;;;;;4998049;28;20578;-87
2022/09/07 09:17:19;;;;;;;0.63;0.20;;;;;;;;;;5016766;28;20042;-87
2022/09/07 09:20:13;;;;;;;0.20;0.10;;;;;;;;;;4984857;28;20431;-88
2022/09/07 09:22:39;;;;;;;0.20;0.10;;;;;;;;;;4999168;28;20056;-88
2022/09/07 09:28:56;;;;;;;0.20;0.10;;;;;;;;;;5018656;28;20080;-89
2022/09/07 09:31:32;;;;;;;0.20;0.10;;;;;;;;;;4979705;28;20053;-89
2022/09/07 09:37:54;;;;;;;;;;;;;;;;;;;;;
2022/09/07 09:43:58;;;;;;;0.73;0.28;;;;;;;;;;5085073;22;20049;-87
2022/09/07 09:46:51;;;;;;;0.20;0.10;;;;;;;;;;4946221;28;20065;-87
2022/09/07 09:49:58;;;;;;;;;;;;;;;;;;;;;
2022/09/07 09:55:43;;;;;;;0.20;0.10;;;;;;;;;;5041001;22;20044;-85
2022/09/07 09:58:30;;;;;;;0.20;0.10;;;;;;;;;;5054685;28;20253;-85
2022/09/07 10:01:02;;;;;;;0.20;0.10;;;;;;;;;;5038001;28;20044;-84
2022/09/07 10:03:35;;;;;;;0.20;0.10;;;;;;;;;;5060401;28;21347;-85
2022/09/07 10:06:03;;;;;;;0.20;0.10;;;;;;;;;;5041126;28;20036;-85
2022/09/07 10:08:30;;;;;;;0.20;0.10;;;;;;;;;;5039101;28;20040;-84
2022/09/07 10:10:59;;;;;;;0.20;0.20;;;;;;;;;;5025834;28;20368;-85
2022/09/07 10:13:34;;;;;;;0.20;0.10;;;;;;;;;;5045161;28;20041;-84
2022/09/07 10:16:07;;;;;;;0.20;0.10;;;;;;;;;;5037365;28;20049;-86
2022/09/07 10:18:33;;;;;;;0.20;0.10;;;;;;;;;;5024429;28;20119;-85
2022/09/07 10:21:23;;;;;;;0.20;0.10;;;;;;;;;;5036389;28;20036;-84
2022/09/07 10:24:05;;;;;;;0.20;0.10;;;;;;;;;;5022454;28;20040;-82
2022/09/07 10:26:38;;;;;;;0.20;0.10;;;;;;;;;;5038149;28;20124;-86
2022/09/07 10:29:33;;;;;;;0.20;0.10;;;;;;;;;;5035608;28;20056;-84
2022/09/07 10:32:26;;;;;;;0.55;0.55;;;;;;;;;;5024147;28;20045;-85
2022/09/07 10:35:10;;;;;;;0.20;0.10;;;;;;;;;;5022854;28;20039;-84
2022/09/07 10:37:42;;;;;;;0.20;0.10;;;;;;;;;;5036846;28;20515;-83
2022/09/07 10:40:15;;;;;;;0.20;0.20;;;;;;;;;;5053479;28;20044;-84
2022/09/07 10:43:16;;;;;;;0.20;0.10;;;;;;;;;;4997982;28;20364;-85
2022/09/07 10:45:42;;;;;;;0.28;0.20;;;;;;;;;;5010904;28;20077;-83
2022/09/07 10:48:14;;;;;;;0.20;0.10;;;;;;;;;;4996529;28;20199;-84
2022/09/07 10:51:21;;;;;;;0.20;0.10;;;;;;;;;;4998257;28;20084;-84
2022/09/07 10:54:14;;;;;;;0.20;0.10;;;;;;;;;;4928798;28;20127;-86
2022/09/07 10:56:52;;;;;;;0.20;0.10;;;;;;;;;;4915410;28;20239;-83
2022/09/07 10:59:30;;;;;;;0.20;0.10;;;;;;;;;;5006125;28;20045;-82
2022/09/07 11:02:08;;;;;;;0.20;0.10;;;;;;;;;;5014908;28;21326;-83
2022/09/07 11:04:46;;;;;;;0.20;0.10;;;;;;;;;;4980595;28;20037;-85
2022/09/07 11:07:38;;;;;;;0.20;0.10;;;;;;;;;;4982260;28;20099;-83
2022/09/07 11:10:04;;;;;;;0.20;0.10;;;;;;;;;;4980684;28;20053;-86
2022/09/07 11:12:38;;;;;;;0.20;0.10;;;;;;;;;;4997463;28;20037;-85
2022/09/07 11:15:13;;;;;;;0.20;0.10;;;;;;;;;;5017949;28;20136;-84
2022/09/07 11:17:58;;;;;;;0.20;0.20;;;;;;;;;;5036543;28;20043;-84
2022/09/07 11:20:28;;;;;;;0.20;0.10;;;;;;;;;;5058936;28;20626;-83
2022/09/07 11:23:12;;;;;;;0.20;0.10;;;;;;;;;;5039552;28;20262;-83
2022/09/07 11:25:41;;;;;;;0.20;0.10;;;;;;;;;;5037901;28;20045;-83
2022/09/07 11:28:12;;;;;;;0.20;0.10;;;;;;;;;;5043917;28;20079;-83
2022/09/07 11:30:50;;;;;;;0.20;0.10;;;;;;;;;;5015076;28;20044;-82
2022/09/07 11:33:33;;;;;;;0.20;0.10;;;;;;;;;;5038166;28;20068;-82
2022/09/07 11:36:01;;;;;;;0.20;0.10;;;;;;;;;;5055157;28;20502;-83
2022/09/07 11:38:46;;;;;;;0.20;0.10;;;;;;;;;;5018995;28;20055;-82
2022/09/07 11:41:19;;;;;;;0.20;0.10;;;;;;;;;;5037000;28;20527;-83
2022/09/07 11:44:20;;;;;;;0.20;0.10;;;;;;;;;;5039495;28;20084;-84
2022/09/07 11:46:52;;;;;;;0.20;0.10;;;;;;;;;;4981380;28;20140;-83
2022/09/07 11:49:22;;;;;;;0.20;0.10;;;;;;;;;;5021582;28;20045;-84
2022/09/07 11:51:52;;;;;;;0.20;0.10;;;;;;;;;;5028800;28;20032;-82
2022/09/07 11:54:37;;;;;;;0.20;0.10;;;;;;;;;;5048219;28;20127;-84
2022/09/07 11:57:13;;;;;;;0.20;0.10;;;;;;;;;;5044335;28;20132;-83
2022/09/07 11:59:59;;;;;;;0.20;0.10;;;;;;;;;;5042348;28;20495;-80
2022/09/07 12:02:44;;;;;;;0.20;0.10;;;;;;;;;;5044632;28;20036;-84
2022/09/07 12:05:22;;;;;;;0.20;0.10;;;;;;;;;;5052042;28;20040;-83
2022/09/07 12:08:07;;;;;;;0.35;0.28;;;;;;;;;;5032579;28;20238;-83
2022/09/07 12:10:52;;;;;;;0.20;0.10;;;;;;;;;;5051874;28;20037;-79
2022/09/07 12:13:21;;;;;;;0.20;0.10;;;;;;;;;;5026695;28;20025;-82
2022/09/07 12:15:59;;;;;;;0.20;0.10;;;;;;;;;;5044706;28;20059;-86
2022/09/07 12:18:31;;;;;;;0.20;0.10;;;;;;;;;;5040451;28;20044;-84
2022/09/07 12:20:57;;;;;;;0.20;0.10;;;;;;;;;;5027076;28;20036;-83
2022/09/07 12:23:27;;;;;;;0.20;0.10;;;;;;;;;;5038054;28;20041;-85
2022/09/07 12:26:13;;;;;;;0.20;0.10;;;;;;;;;;5020020;28;20114;-83
2022/09/07 12:28:39;;;;;;;0.20;0.10;;;;;;;;;;5041983;28;20506;-83
2022/09/07 12:31:05;;;;;;;0.20;0.10;;;;;;;;;;5040159;28;20072;-84
2022/09/07 12:33:36;;;;;;;0.20;0.10;;;;;;;;;;5028027;28;20126;-81
2022/09/07 12:36:22;;;;;;;0.20;0.10;;;;;;;;;;5043303;28;20419;-81
2022/09/07 12:39:07;;;;;;;0.20;0.10;;;;;;;;;;5025387;28;20074;-83
2022/09/07 12:41:41;;;;;;;0.20;0.10;;;;;;;;;;5045761;28;20036;-83
2022/09/07 12:44:14;;;;;;;0.20;0.10;;;;;;;;;;5022937;28;20048;-80
2022/09/07 12:46:44;;;;;;;0.20;0.10;;;;;;;;;;5039807;28;20143;-79
2022/09/07 12:49:13;;;;;;;0.20;0.10;;;;;;;;;;5059428;28;20474;-81
2022/09/07 12:51:39;;;;;;;0.20;0.10;;;;;;;;;;5023939;28;20083;-83
2022/09/07 12:54:15;;;;;;;0.20;0.10;;;;;;;;;;5021411;28;20116;-82
2022/09/07 12:57:07;;;;;;;0.20;0.10;;;;;;;;;;5033255;28;20047;-81
2022/09/07 12:59:58;;;;;;;0.20;0.10;;;;;;;;;;5022132;28;20048;-84
2022/09/07 13:02:38;;;;;;;0.20;0.10;;;;;;;;;;5047323;28;20078;-81
2022/09/07 13:05:10;;;;;;;0.20;0.10;;;;;;;;;;5038640;28;20158;-82
2022/09/07 13:07:36;;;;;;;0.20;0.10;;;;;;;;;;5024641;28;20055;-79
2022/09/07 13:10:04;;;;;;;0.20;0.10;;;;;;;;;;5022987;28;20044;-81
2022/09/07 13:12:37;;;;;;;0.20;0.10;;;;;;;;;;5037768;28;20052;-83
2022/09/07 13:15:04;;;;;;;0.20;0.10;;;;;;;;;;5045307;28;20120;-82
2022/09/07 13:17:33;;;;;;;0.20;0.10;;;;;;;;;;5022502;28;20131;-82
2022/09/07 13:20:00;;;;;;;0.20;0.20;;;;;;;;;;5028129;28;20106;-82
2022/09/07 13:22:29;;;;;;;0.20;0.10;;;;;;;;;;5016914;28;20045;-84
2022/09/07 13:24:58;;;;;;;0.20;0.10;;;;;;;;;;5040703;28;20439;-83
2022/09/07 13:27:27;;;;;;;0.20;0.10;;;;;;;;;;5058343;28;20040;-84
2022/09/07 13:30:01;;;;;;;0.20;0.10;;;;;;;;;;5036649;28;20044;-84
2022/09/07 13:32:31;;;;;;;0.20;0.10;;;;;;;;;;5019166;28;20047;-85
2022/09/07 13:35:16;;;;;;;0.20;0.20;;;;;;;;;;5019175;28;20284;-83
2022/09/07 13:37:44;;;;;;;0.20;0.10;;;;;;;;;;5055128;28;20041;-84
2022/09/07 13:40:13;;;;;;;0.20;0.10;;;;;;;;;;5056255;28;20036;-83
2022/09/07 13:42:42;;;;;;;0.20;0.10;;;;;;;;;;5033517;28;20036;-84
2022/09/07 13:45:27;;;;;;;0.20;0.10;;;;;;;;;;5020154;28;20094;-83
2022/09/07 13:47:56;;;;;;;0.20;0.10;;;;;;;;;;5043906;28;20499;-83
2022/09/07 13:50:46;;;;;;;0.20;0.10;;;;;;;;;;5038369;28;20033;-84
2022/09/07 13:53:31;;;;;;;0.20;0.10;;;;;;;;;;5027737;28;20067;-83
2022/09/07 13:55:57;;;;;;;0.20;0.10;;;;;;;;;;5038017;28;20040;-83
2022/09/07 13:58:23;;;;;;;0.20;0.10;;;;;;;;;;5020968;28;20355;-83
2022/09/07 14:00:57;;;;;;;0.20;0.10;;;;;;;;;;5036923;28;20040;-83
2022/09/07 14:03:27;;;;;;;0.20;0.10;;;;;;;;;;5035832;28;20067;-81
2022/09/07 14:06:13;;;;;;;0.20;0.10;;;;;;;;;;5043102;28;20036;-81
2022/09/07 14:08:40;;;;;;;0.20;0.10;;;;;;;;;;5038719;28;20047;-82
2022/09/07 14:11:19;;;;;;;0.20;0.10;;;;;;;;;;5026377;28;20044;-81
2022/09/07 14:13:45;;;;;;;0.20;0.10;;;;;;;;;;5041550;28;20040;-82
2022/09/07 14:16:12;;;;;;;0.20;0.10;;;;;;;;;;5012166;28;20036;-83
2022/09/07 14:18:39;;;;;;;0.20;0.10;;;;;;;;;;5046435;28;20072;-82
2022/09/07 14:21:08;;;;;;;0.20;0.10;;;;;;;;;;5062732;28;20517;-83
2022/09/07 14:23:35;;;;;;;0.20;0.10;;;;;;;;;;5041739;28;21040;-83
2022/09/07 14:26:16;;;;;;;0.20;0.10;;;;;;;;;;5020483;28;20112;-82
2022/09/07 14:28:44;;;;;;;0.20;0.10;;;;;;;;;;5020697;28;20050;-83
2022/09/07 14:31:11;;;;;;;0.20;0.10;;;;;;;;;;5021030;28;20051;-82
2022/09/07 14:33:38;;;;;;;0.20;0.10;;;;;;;;;;5023931;28;21454;-82
2022/09/07 14:36:04;;;;;;;0.20;0.10;;;;;;;;;;5044117;28;20032;-82
2022/09/07 14:38:32;;;;;;;0.20;0.10;;;;;;;;;;5037292;28;20527;-82
2022/09/07 14:41:00;;;;;;;0.20;0.10;;;;;;;;;;5038283;28;20060;-80
2022/09/07 14:43:33;;;;;;;0.20;0.10;;;;;;;;;;5040564;28;20423;-82
2022/09/07 14:46:08;;;;;;;0.20;0.10;;;;;;;;;;5040088;28;20588;-82
2022/09/07 14:48:38;;;;;;;0.20;0.10;;;;;;;;;;5022114;28;20045;-82
2022/09/07 14:51:04;;;;;;;0.20;0.10;;;;;;;;;;5043983;28;20452;-82
2022/09/07 14:53:30;;;;;;;0.20;0.10;;;;;;;;;;5013261;28;20036;-82
2022/09/07 14:56:01;;;;;;;0.20;0.10;;;;;;;;;;5025804;28;20072;-83
2022/09/07 14:58:29;;;;;;;0.20;0.10;;;;;;;;;;5026082;28;20068;-82
2022/09/07 15:01:15;;;;;;;0.20;0.10;;;;;;;;;;5042658;28;20072;-81
2022/09/07 15:03:41;;;;;;;0.20;0.10;;;;;;;;;;5039631;28;20044;-82
2022/09/07 15:06:09;;;;;;;0.20;0.10;;;;;;;;;;5042466;28;20155;-81
2022/09/07 15:08:35;;;;;;;0.20;0.10;;;;;;;;;;5040022;28;20040;-82
2022/09/07 15:11:02;;;;;;;0.20;0.10;;;;;;;;;;5052468;28;20093;-82
2022/09/07 15:13:31;;;;;;;0.20;0.10;;;;;;;;;;5039110;28;20494;-82
2022/09/07 15:16:02;;;;;;;0.20;0.10;;;;;;;;;;5021020;28;20791;-83
2022/09/07 15:18:43;;;;;;;0.20;0.10;;;;;;;;;;5040655;28;20494;-81
2022/09/07 15:21:09;;;;;;;0.20;0.10;;;;;;;;;;5055411;28;20041;-82